Laguna Beach, CA

2:08 PM PDT on July 24, 2016 (GMT -0700)
Downtown | | Change Station

Elev 30 ft 33.54 °N, 117.78 °W | Updated 30 seconds ago

Partly Cloudy
Partly Cloudy
78.2 °F
Feels Like 80 °F
N
4.9
Wind Variable Wind from SE
Gusts 8.0 mph

Today
High -- | Low -- °F
--% Chance of Precip.
Yesterday
High -- | Low -- °F
Precip. -- in
Pressure 29.91 in
Visibility 10.0 miles
Clouds Few 18000 ft
Few 25000 ft
Heat Index 80 °F
Dew Point 69 °F
Humidity 69%
Rainfall Not available.
Snow Depth Not available.
5:58 AM 7:56 PM
Waning Gibbous, 73% visible
METAR KSNA 242053Z 20012KT 10SM FEW180 FEW250 31/13 A2991 RMK AO2 SLP128 FU FEW180 T03060133 57006 $
Pressure 29.91 in
Visibility 10.0 miles
Clouds Few 18000 ft
Few 25000 ft
Heat Index 80 °F
Dew Point 69 °F
Humidity 69%
Rainfall Not available.
Snow Depth Not available.
5:58 AM 7:56 PM
Waning Gibbous, 73% visible
METAR KSNA 242053Z 20012KT 10SM FEW180 FEW250 31/13 A2991 RMK AO2 SLP128 FU FEW180 T03060133 57006 $

10-Day Weather Forecast

Almanac

Astronomy

Jul. 24, 2016 Rise Set
Actual Time
Civil Twilight
Nautical Twilight
Astronomical Twilight
Moon
Length of Visible Light
Length of Day
Tomorrow will be .
, % of the Moon is Illuminated

Today's Extremes

State Highs State Lows

Community

WunderPhotos

Upload Photos

1,927,190 photos uploaded!

WunderBlog® & News

Nearby

Air Quality

  Air Quality AQ Index Pollutant
Not available.

Snow Depth

Station Depth Elevation

Earthquake Activity

City Distance Mag. Time & Date
Minimum magnitude displayed is 2.5.

Coastal Water Temperatures

Place Temperature

Stations

Nearby Weather Stations

Station Location Temp. Windchill Dew Point Humidity Wind Precip. Elev Updated Type
                   

Watches & Warnings

There are currently no watches in effect.